sensor_id;sensor_type;location;lat;lon;timestamp;temperature;humidity
23719;DHT22;43322;52.230;5.702;2022-12-07T00:01:22;3.40;99.90
23719;DHT22;43322;52.230;5.702;2022-12-07T00:03:52;3.30;99.90
23719;DHT22;43322;52.230;5.702;2022-12-07T00:06:20;3.20;99.90
23719;DHT22;43322;52.230;5.702;2022-12-07T00:08:48;3.20;99.90
23719;DHT22;43322;52.230;5.702;2022-12-07T00:11:16;3.20;99.90
23719;DHT22;43322;52.230;5.702;2022-12-07T00:13:44;3.30;99.90
23719;DHT22;43322;52.230;5.702;2022-12-07T00:16:13;3.30;99.90
23719;DHT22;43322;52.230;5.702;2022-12-07T00:18:41;3.30;99.90
23719;DHT22;43322;52.230;5.702;2022-12-07T00:21:12;3.20;99.90
23719;DHT22;43322;52.230;5.702;2022-12-07T00:23:40;3.20;99.90
23719;DHT22;43322;52.230;5.702;2022-12-07T00:26:08;3.10;99.90
23719;DHT22;43322;52.230;5.702;2022-12-07T00:28:36;3.10;99.90
23719;DHT22;43322;52.230;5.702;2022-12-07T00:31:05;3.10;99.90
23719;DHT22;43322;52.230;5.702;2022-12-07T00:33:33;3.10;99.90
23719;DHT22;43322;52.230;5.702;2022-12-07T00:36:01;3.10;99.90
23719;DHT22;43322;52.230;5.702;2022-12-07T00:38:31;3.10;99.90
23719;DHT22;43322;52.230;5.702;2022-12-07T00:40:59;3.20;99.90
23719;DHT22;43322;52.230;5.702;2022-12-07T00:43:27;3.20;99.90
23719;DHT22;43322;52.230;5.702;2022-12-07T00:45:54;3.20;99.90
23719;DHT22;43322;52.230;5.702;2022-12-07T00:48:21;3.30;99.90
23719;DHT22;43322;52.230;5.702;2022-12-07T00:50:49;3.30;99.90
23719;DHT22;43322;52.230;5.702;2022-12-07T00:53:16;3.20;99.90
23719;DHT22;43322;52.230;5.702;2022-12-07T00:55:45;3.20;99.90
23719;DHT22;43322;52.230;5.702;2022-12-07T00:58:12;3.10;99.90
23719;DHT22;43322;52.230;5.702;2022-12-07T01:00:41;3.10;99.90
23719;DHT22;43322;52.230;5.702;2022-12-07T01:03:10;3.10;99.90
23719;DHT22;43322;52.230;5.702;2022-12-07T01:05:37;3.00;99.90
23719;DHT22;43322;52.230;5.702;2022-12-07T01:08:04;3.00;99.90
23719;DHT22;43322;52.230;5.702;2022-12-07T01:10:32;3.10;99.90
23719;DHT22;43322;52.230;5.702;2022-12-07T01:13:00;3.10;99.90
23719;DHT22;43322;52.230;5.702;2022-12-07T01:15:27;2.90;99.90
23719;DHT22;43322;52.230;5.702;2022-12-07T01:17:53;2.90;99.90
23719;DHT22;43322;52.230;5.702;2022-12-07T01:20:21;3.00;99.90
23719;DHT22;43322;52.230;5.702;2022-12-07T01:22:48;3.00;99.90
23719;DHT22;43322;52.230;5.702;2022-12-07T01:25:15;2.90;99.90
23719;DHT22;43322;52.230;5.702;2022-12-07T01:27:42;2.90;99.90
23719;DHT22;43322;52.230;5.702;2022-12-07T01:30:12;3.00;99.90
23719;DHT22;43322;52.230;5.702;2022-12-07T01:32:39;3.00;99.90
23719;DHT22;43322;52.230;5.702;2022-12-07T01:35:06;2.90;99.90
23719;DHT22;43322;52.230;5.702;2022-12-07T01:37:35;2.80;99.90
23719;DHT22;43322;52.230;5.702;2022-12-07T01:40:03;2.80;99.90
23719;DHT22;43322;52.230;5.702;2022-12-07T01:42:30;2.90;99.90
23719;DHT22;43322;52.230;5.702;2022-12-07T01:48:15;2.70;99.90
23719;DHT22;43322;52.230;5.702;2022-12-07T01:50:47;2.80;99.90
23719;DHT22;43322;52.230;5.702;2022-12-07T01:53:15;2.70;99.90
23719;DHT22;43322;52.230;5.702;2022-12-07T01:55:47;2.70;99.90
23719;DHT22;43322;52.230;5.702;2022-12-07T01:58:15;2.60;99.90
23719;DHT22;43322;52.230;5.702;2022-12-07T02:00:42;2.60;99.90
23719;DHT22;43322;52.230;5.702;2022-12-07T02:03:13;2.60;99.90
23719;DHT22;43322;52.230;5.702;2022-12-07T02:05:43;2.50;99.90
23719;DHT22;43322;52.230;5.702;2022-12-07T02:08:11;2.50;99.90
23719;DHT22;43322;52.230;5.702;2022-12-07T02:10:38;2.50;99.90
23719;DHT22;43322;52.230;5.702;2022-12-07T02:13:08;2.50;99.90
23719;DHT22;43322;52.230;5.702;2022-12-07T02:15:45;2.50;99.90
23719;DHT22;43322;52.230;5.702;2022-12-07T02:18:22;2.50;99.90
23719;DHT22;43322;52.230;5.702;2022-12-07T02:20:56;2.60;99.90
23719;DHT22;43322;52.230;5.702;2022-12-07T02:23:57;2.60;99.90
23719;DHT22;43322;52.230;5.702;2022-12-07T02:26:55;2.70;99.90
23719;DHT22;43322;52.230;5.702;2022-12-07T02:29:28;2.90;99.90
23719;DHT22;43322;52.230;5.702;2022-12-07T02:32:01;2.90;99.90
23719;DHT22;43322;52.230;5.702;2022-12-07T02:34:37;2.90;99.90
23719;DHT22;43322;52.230;5.702;2022-12-07T02:37:12;2.90;99.90
23719;DHT22;43322;52.230;5.702;2022-12-07T02:39:48;2.90;99.90
23719;DHT22;43322;52.230;5.702;2022-12-07T02:42:21;2.90;99.90
23719;DHT22;43322;52.230;5.702;2022-12-07T02:44:52;2.90;99.90
23719;DHT22;43322;52.230;5.702;2022-12-07T02:47:21;2.90;99.90
23719;DHT22;43322;52.230;5.702;2022-12-07T02:49:50;3.00;99.90
23719;DHT22;43322;52.230;5.702;2022-12-07T02:52:17;3.00;99.90
23719;DHT22;43322;52.230;5.702;2022-12-07T02:54:44;3.00;99.90
23719;DHT22;43322;52.230;5.702;2022-12-07T02:57:26;3.20;99.90
23719;DHT22;43322;52.230;5.702;2022-12-07T03:00:01;3.10;99.90
23719;DHT22;43322;52.230;5.702;2022-12-07T03:02:38;3.10;99.90
23719;DHT22;43322;52.230;5.702;2022-12-07T03:05:15;3.20;99.90
23719;DHT22;43322;52.230;5.702;2022-12-07T03:07:53;3.20;99.90
23719;DHT22;43322;52.230;5.702;2022-12-07T03:10:27;3.20;99.90
23719;DHT22;43322;52.230;5.702;2022-12-07T03:13:00;3.20;99.90
23719;DHT22;43322;52.230;5.702;2022-12-07T03:15:32;3.20;99.90
23719;DHT22;43322;52.230;5.702;2022-12-07T03:18:02;3.30;99.90
23719;DHT22;43322;52.230;5.702;2022-12-07T03:20:31;3.10;99.90
23719;DHT22;43322;52.230;5.702;2022-12-07T03:22:59;3.10;99.90
23719;DHT22;43322;52.230;5.702;2022-12-07T03:25:27;3.00;99.90
23719;DHT22;43322;52.230;5.702;2022-12-07T03:27:56;3.00;99.90
23719;DHT22;43322;52.230;5.702;2022-12-07T03:30:27;3.00;99.90
23719;DHT22;43322;52.230;5.702;2022-12-07T03:32:59;3.60;99.90
23719;DHT22;43322;52.230;5.702;2022-12-07T03:35:30;2.90;99.90
23719;DHT22;43322;52.230;5.702;2022-12-07T03:38:02;2.80;99.90
23719;DHT22;43322;52.230;5.702;2022-12-07T03:40:34;2.80;99.90
23719;DHT22;43322;52.230;5.702;2022-12-07T03:43:02;2.70;99.90
23719;DHT22;43322;52.230;5.702;2022-12-07T03:45:35;2.70;99.90
23719;DHT22;43322;52.230;5.702;2022-12-07T03:48:08;2.70;99.90
23719;DHT22;43322;52.230;5.702;2022-12-07T03:50:41;2.80;99.90
23719;DHT22;43322;52.230;5.702;2022-12-07T03:53:11;2.80;99.90
23719;DHT22;43322;52.230;5.702;2022-12-07T03:55:42;2.80;99.90
23719;DHT22;43322;52.230;5.702;2022-12-07T03:58:12;2.60;99.90
23719;DHT22;43322;52.230;5.702;2022-12-07T04:00:40;2.60;99.90
23719;DHT22;43322;52.230;5.702;2022-12-07T04:03:09;2.60;99.90
23719;DHT22;43322;52.230;5.702;2022-12-07T04:05:36;2.60;99.90
23719;DHT22;43322;52.230;5.702;2022-12-07T04:08:03;2.70;99.90
23719;DHT22;43322;52.230;5.702;2022-12-07T04:10:30;3.00;99.90
23719;DHT22;43322;52.230;5.702;2022-12-07T04:12:57;2.90;99.90
23719;DHT22;43322;52.230;5.702;2022-12-07T04:15:24;2.90;99.90
23719;DHT22;43322;52.230;5.702;2022-12-07T04:17:50;3.00;99.90
23719;DHT22;43322;52.230;5.702;2022-12-07T04:20:19;2.90;99.90
23719;DHT22;43322;52.230;5.702;2022-12-07T04:22:46;2.90;99.90
23719;DHT22;43322;52.230;5.702;2022-12-07T04:25:12;2.80;99.90
23719;DHT22;43322;52.230;5.702;2022-12-07T04:27:39;2.80;99.90
23719;DHT22;43322;52.230;5.702;2022-12-07T04:30:07;2.80;99.90
23719;DHT22;43322;52.230;5.702;2022-12-07T04:32:34;2.70;99.90
23719;DHT22;43322;52.230;5.702;2022-12-07T04:35:00;2.60;99.90
23719;DHT22;43322;52.230;5.702;2022-12-07T04:37:28;2.60;99.90
23719;DHT22;43322;52.230;5.702;2022-12-07T04:39:55;2.50;99.90
23719;DHT22;43322;52.230;5.702;2022-12-07T04:42:22;2.50;99.90
23719;DHT22;43322;52.230;5.702;2022-12-07T04:44:49;2.60;99.90
23719;DHT22;43322;52.230;5.702;2022-12-07T04:47:16;2.50;99.90
23719;DHT22;43322;52.230;5.702;2022-12-07T04:49:43;2.50;99.90
23719;DHT22;43322;52.230;5.702;2022-12-07T04:52:09;2.50;99.90
23719;DHT22;43322;52.230;5.702;2022-12-07T04:54:38;2.40;99.90
23719;DHT22;43322;52.230;5.702;2022-12-07T04:57:04;2.40;99.90
23719;DHT22;43322;52.230;5.702;2022-12-07T04:59:31;2.40;99.90
23719;DHT22;43322;52.230;5.702;2022-12-07T05:01:58;2.40;99.90
23719;DHT22;43322;52.230;5.702;2022-12-07T05:04:24;2.40;99.90
23719;DHT22;43322;52.230;5.702;2022-12-07T05:06:51;2.40;99.90
23719;DHT22;43322;52.230;5.702;2022-12-07T05:09:18;2.50;99.90
23719;DHT22;43322;52.230;5.702;2022-12-07T05:11:46;2.40;99.90
23719;DHT22;43322;52.230;5.702;2022-12-07T05:14:15;2.40;99.90
23719;DHT22;43322;52.230;5.702;2022-12-07T05:16:43;2.30;99.90
23719;DHT22;43322;52.230;5.702;2022-12-07T05:19:11;2.30;99.90
23719;DHT22;43322;52.230;5.702;2022-12-07T05:21:39;2.30;99.90
23719;DHT22;43322;52.230;5.702;2022-12-07T05:24:07;2.40;99.90
23719;DHT22;43322;52.230;5.702;2022-12-07T05:26:34;2.40;99.90
23719;DHT22;43322;52.230;5.702;2022-12-07T05:29:02;2.30;99.90
23719;DHT22;43322;52.230;5.702;2022-12-07T05:31:29;2.40;99.90
23719;DHT22;43322;52.230;5.702;2022-12-07T05:33:56;2.30;99.90
23719;DHT22;43322;52.230;5.702;2022-12-07T05:36:23;2.30;99.90
23719;DHT22;43322;52.230;5.702;2022-12-07T05:38:50;2.20;99.90
23719;DHT22;43322;52.230;5.702;2022-12-07T05:41:18;2.30;99.90
23719;DHT22;43322;52.230;5.702;2022-12-07T05:44:05;3.30;99.90
23719;DHT22;43322;52.230;5.702;2022-12-07T05:46:32;2.20;99.90
23719;DHT22;43322;52.230;5.702;2022-12-07T05:48:59;2.10;99.90
23719;DHT22;43322;52.230;5.702;2022-12-07T05:51:26;2.00;99.90
23719;DHT22;43322;52.230;5.702;2022-12-07T05:53:53;2.20;99.90
23719;DHT22;43322;52.230;5.702;2022-12-07T05:56:20;2.20;99.90
23719;DHT22;43322;52.230;5.702;2022-12-07T05:58:47;2.20;99.90
23719;DHT22;43322;52.230;5.702;2022-12-07T06:01:32;2.20;99.90
23719;DHT22;43322;52.230;5.702;2022-12-07T06:03:59;2.30;99.90
23719;DHT22;43322;52.230;5.702;2022-12-07T06:06:26;2.20;99.90
23719;DHT22;43322;52.230;5.702;2022-12-07T06:08:53;2.20;99.90
23719;DHT22;43322;52.230;5.702;2022-12-07T06:11:20;2.10;99.90
23719;DHT22;43322;52.230;5.702;2022-12-07T06:14:04;2.10;99.90
23719;DHT22;43322;52.230;5.702;2022-12-07T06:16:32;2.00;99.90
23719;DHT22;43322;52.230;5.702;2022-12-07T06:18:59;2.00;99.90
23719;DHT22;43322;52.230;5.702;2022-12-07T06:21:26;2.00;99.90
23719;DHT22;43322;52.230;5.702;2022-12-07T06:23:53;2.10;99.90
23719;DHT22;43322;52.230;5.702;2022-12-07T06:26:20;2.10;99.90
23719;DHT22;43322;52.230;5.702;2022-12-07T06:28:46;2.10;99.90
23719;DHT22;43322;52.230;5.702;2022-12-07T06:31:13;2.10;99.90
23719;DHT22;43322;52.230;5.702;2022-12-07T06:33:42;2.00;99.90
23719;DHT22;43322;52.230;5.702;2022-12-07T06:36:09;2.00;99.90
23719;DHT22;43322;52.230;5.702;2022-12-07T06:38:36;2.00;99.90
23719;DHT22;43322;52.230;5.702;2022-12-07T06:41:03;2.00;99.90
23719;DHT22;43322;52.230;5.702;2022-12-07T06:43:30;1.90;99.90
23719;DHT22;43322;52.230;5.702;2022-12-07T06:45:56;2.00;99.90
23719;DHT22;43322;52.230;5.702;2022-12-07T06:48:23;1.90;99.90
23719;DHT22;43322;52.230;5.702;2022-12-07T06:50:52;2.50;99.90
23719;DHT22;43322;52.230;5.702;2022-12-07T06:53:19;2.00;99.90
23719;DHT22;43322;52.230;5.702;2022-12-07T06:55:45;1.80;99.90
23719;DHT22;43322;52.230;5.702;2022-12-07T06:58:12;1.00;99.90
23719;DHT22;43322;52.230;5.702;2022-12-07T07:00:39;1.70;99.90
23719;DHT22;43322;52.230;5.702;2022-12-07T07:03:06;1.70;99.90
23719;DHT22;43322;52.230;5.702;2022-12-07T07:05:32;1.60;99.90
23719;DHT22;43322;52.230;5.702;2022-12-07T07:08:01;1.50;99.90
23719;DHT22;43322;52.230;5.702;2022-12-07T07:10:28;1.50;99.90
23719;DHT22;43322;52.230;5.702;2022-12-07T07:12:54;1.40;99.90
23719;DHT22;43322;52.230;5.702;2022-12-07T07:15:21;1.40;99.90
23719;DHT22;43322;52.230;5.702;2022-12-07T07:17:48;1.20;99.90
23719;DHT22;43322;52.230;5.702;2022-12-07T07:20:15;1.20;99.90
23719;DHT22;43322;52.230;5.702;2022-12-07T07:22:42;1.20;99.90
23719;DHT22;43322;52.230;5.702;2022-12-07T07:25:10;1.20;99.90
23719;DHT22;43322;52.230;5.702;2022-12-07T07:27:37;1.30;99.90
23719;DHT22;43322;52.230;5.702;2022-12-07T07:30:04;1.40;99.90
23719;DHT22;43322;52.230;5.702;2022-12-07T07:32:31;1.40;99.90
23719;DHT22;43322;52.230;5.702;2022-12-07T07:34:58;1.30;99.90
23719;DHT22;43322;52.230;5.702;2022-12-07T07:37:25;1.30;99.90
23719;DHT22;43322;52.230;5.702;2022-12-07T07:39:52;1.30;99.90
23719;DHT22;43322;52.230;5.702;2022-12-07T07:42:20;1.30;99.90
23719;DHT22;43322;52.230;5.702;2022-12-07T07:44:48;1.40;99.90
23719;DHT22;43322;52.230;5.702;2022-12-07T07:47:14;1.50;99.90
23719;DHT22;43322;52.230;5.702;2022-12-07T07:49:41;1.50;99.90
23719;DHT22;43322;52.230;5.702;2022-12-07T07:52:08;1.50;99.90
23719;DHT22;43322;52.230;5.702;2022-12-07T07:54:34;1.70;99.90
23719;DHT22;43322;52.230;5.702;2022-12-07T07:57:01;1.70;99.90
23719;DHT22;43322;52.230;5.702;2022-12-07T07:59:29;1.80;99.90
23719;DHT22;43322;52.230;5.702;2022-12-07T08:01:56;1.80;99.90
23719;DHT22;43322;52.230;5.702;2022-12-07T08:04:23;1.80;99.90
23719;DHT22;43322;52.230;5.702;2022-12-07T08:06:49;1.90;99.90
23719;DHT22;43322;52.230;5.702;2022-12-07T08:09:16;2.00;99.90
23719;DHT22;43322;52.230;5.702;2022-12-07T08:11:43;2.00;99.90
23719;DHT22;43322;52.230;5.702;2022-12-07T08:14:10;2.00;99.90
23719;DHT22;43322;52.230;5.702;2022-12-07T08:16:38;2.10;99.90
23719;DHT22;43322;52.230;5.702;2022-12-07T08:19:06;2.00;99.90
23719;DHT22;43322;52.230;5.702;2022-12-07T08:21:33;1.90;99.90
23719;DHT22;43322;52.230;5.702;2022-12-07T08:24:00;1.90;99.90
23719;DHT22;43322;52.230;5.702;2022-12-07T08:26:26;1.90;99.90
23719;DHT22;43322;52.230;5.702;2022-12-07T08:28:53;1.90;99.90
23719;DHT22;43322;52.230;5.702;2022-12-07T08:31:20;2.00;99.90
23719;DHT22;43322;52.230;5.702;2022-12-07T08:33:48;2.00;99.90
23719;DHT22;43322;52.230;5.702;2022-12-07T08:36:16;2.10;99.90
23719;DHT22;43322;52.230;5.702;2022-12-07T08:38:43;2.20;99.90
23719;DHT22;43322;52.230;5.702;2022-12-07T08:41:11;2.40;99.90
23719;DHT22;43322;52.230;5.702;2022-12-07T08:43:38;2.40;99.90
23719;DHT22;43322;52.230;5.702;2022-12-07T08:46:09;2.50;99.90
23719;DHT22;43322;52.230;5.702;2022-12-07T08:48:39;2.50;99.90
23719;DHT22;43322;52.230;5.702;2022-12-07T08:51:08;2.60;99.90
23719;DHT22;43322;52.230;5.702;2022-12-07T08:53:37;2.60;99.90
23719;DHT22;43322;52.230;5.702;2022-12-07T08:56:06;2.60;99.90
23719;DHT22;43322;52.230;5.702;2022-12-07T08:58:35;2.60;99.90
23719;DHT22;43322;52.230;5.702;2022-12-07T09:01:03;2.50;99.90
23719;DHT22;43322;52.230;5.702;2022-12-07T09:03:30;2.50;99.90
23719;DHT22;43322;52.230;5.702;2022-12-07T09:05:57;2.60;99.90
23719;DHT22;43322;52.230;5.702;2022-12-07T09:08:28;2.50;99.90
23719;DHT22;43322;52.230;5.702;2022-12-07T09:10:56;2.60;99.90
23719;DHT22;43322;52.230;5.702;2022-12-07T09:13:23;2.60;99.90
23719;DHT22;43322;52.230;5.702;2022-12-07T09:15:50;2.80;99.90
23719;DHT22;43322;52.230;5.702;2022-12-07T09:18:16;2.80;99.90
23719;DHT22;43322;52.230;5.702;2022-12-07T09:20:43;2.70;99.90
23719;DHT22;43322;52.230;5.702;2022-12-07T09:23:10;2.80;99.90
23719;DHT22;43322;52.230;5.702;2022-12-07T09:25:38;2.80;99.90
23719;DHT22;43322;52.230;5.702;2022-12-07T09:28:05;2.80;99.90
23719;DHT22;43322;52.230;5.702;2022-12-07T09:30:32;2.80;99.90
23719;DHT22;43322;52.230;5.702;2022-12-07T09:32:59;2.80;99.90
23719;DHT22;43322;52.230;5.702;2022-12-07T09:35:25;2.80;99.90
23719;DHT22;43322;52.230;5.702;2022-12-07T09:37:52;3.00;99.90
23719;DHT22;43322;52.230;5.702;2022-12-07T09:40:21;3.00;99.90
23719;DHT22;43322;52.230;5.702;2022-12-07T09:42:52;3.10;99.90
23719;DHT22;43322;52.230;5.702;2022-12-07T09:45:23;3.00;99.90
23719;DHT22;43322;52.230;5.702;2022-12-07T09:47:51;3.00;99.90
23719;DHT22;43322;52.230;5.702;2022-12-07T09:50:21;3.10;99.90
23719;DHT22;43322;52.230;5.702;2022-12-07T09:52:49;3.20;99.90
23719;DHT22;43322;52.230;5.702;2022-12-07T09:55:21;3.30;99.90
23719;DHT22;43322;52.230;5.702;2022-12-07T09:57:50;3.40;99.90
23719;DHT22;43322;52.230;5.702;2022-12-07T10:00:20;3.50;99.90
23719;DHT22;43322;52.230;5.702;2022-12-07T10:02:52;3.70;99.90
23719;DHT22;43322;52.230;5.702;2022-12-07T10:05:24;3.90;99.90
23719;DHT22;43322;52.230;5.702;2022-12-07T10:07:52;4.10;99.90
23719;DHT22;43322;52.230;5.702;2022-12-07T10:10:23;4.20;99.90
23719;DHT22;43322;52.230;5.702;2022-12-07T10:12:58;4.30;99.90
23719;DHT22;43322;52.230;5.702;2022-12-07T10:15:47;4.30;99.90
23719;DHT22;43322;52.230;5.702;2022-12-07T10:18:27;4.10;99.90
23719;DHT22;43322;52.230;5.702;2022-12-07T10:21:09;4.10;99.90
23719;DHT22;43322;52.230;5.702;2022-12-07T10:23:38;4.30;99.90
23719;DHT22;43322;52.230;5.702;2022-12-07T10:26:21;4.50;99.90
23719;DHT22;43322;52.230;5.702;2022-12-07T10:28:54;4.80;99.90
23719;DHT22;43322;52.230;5.702;2022-12-07T10:31:23;5.00;99.90
23719;DHT22;43322;52.230;5.702;2022-12-07T10:33:52;5.10;99.90
23719;DHT22;43322;52.230;5.702;2022-12-07T10:36:22;5.20;99.90
23719;DHT22;43322;52.230;5.702;2022-12-07T10:38:50;5.20;99.90
23719;DHT22;43322;52.230;5.702;2022-12-07T10:41:18;5.50;99.90
23719;DHT22;43322;52.230;5.702;2022-12-07T10:43:51;5.50;99.90
23719;DHT22;43322;52.230;5.702;2022-12-07T10:46:44;6.20;99.90
23719;DHT22;43322;52.230;5.702;2022-12-07T10:52:12;6.20;99.90
23719;DHT22;43322;52.230;5.702;2022-12-07T10:54:48;6.60;99.90
23719;DHT22;43322;52.230;5.702;2022-12-07T10:57:30;7.20;99.90
23719;DHT22;43322;52.230;5.702;2022-12-07T11:00:19;8.20;99.90
23719;DHT22;43322;52.230;5.702;2022-12-07T11:03:05;9.00;99.90
23719;DHT22;43322;52.230;5.702;2022-12-07T11:05:45;9.60;99.90
23719;DHT22;43322;52.230;5.702;2022-12-07T11:08:22;9.90;99.90
23719;DHT22;43322;52.230;5.702;2022-12-07T11:10:59;10.70;99.90
23719;DHT22;43322;52.230;5.702;2022-12-07T11:13:35;10.90;99.90
23719;DHT22;43322;52.230;5.702;2022-12-07T11:16:16;11.70;99.90
23719;DHT22;43322;52.230;5.702;2022-12-07T11:18:55;12.20;99.90
23719;DHT22;43322;52.230;5.702;2022-12-07T11:21:30;12.00;99.90
23719;DHT22;43322;52.230;5.702;2022-12-07T11:24:03;11.10;99.90
23719;DHT22;43322;52.230;5.702;2022-12-07T11:26:44;10.00;99.90
23719;DHT22;43322;52.230;5.702;2022-12-07T11:29:26;9.30;99.90
23719;DHT22;43322;52.230;5.702;2022-12-07T11:32:04;8.90;99.90
23719;DHT22;43322;52.230;5.702;2022-12-07T11:34:44;8.20;99.90
23719;DHT22;43322;52.230;5.702;2022-12-07T11:37:16;7.60;99.90
23719;DHT22;43322;52.230;5.702;2022-12-07T11:39:49;8.00;99.90
23719;DHT22;43322;52.230;5.702;2022-12-07T11:42:22;6.90;99.90
23719;DHT22;43322;52.230;5.702;2022-12-07T11:44:53;6.60;99.90
23719;DHT22;43322;52.230;5.702;2022-12-07T11:47:27;6.30;99.90
23719;DHT22;43322;52.230;5.702;2022-12-07T11:50:05;6.30;99.90
23719;DHT22;43322;52.230;5.702;2022-12-07T11:52:43;6.30;99.90
23719;DHT22;43322;52.230;5.702;2022-12-07T11:55:18;6.40;99.90
23719;DHT22;43322;52.230;5.702;2022-12-07T11:57:52;6.30;99.90
23719;DHT22;43322;52.230;5.702;2022-12-07T12:00:21;6.10;99.90
23719;DHT22;43322;52.230;5.702;2022-12-07T12:02:53;6.00;99.90
23719;DHT22;43322;52.230;5.702;2022-12-07T12:05:25;5.90;99.90
23719;DHT22;43322;52.230;5.702;2022-12-07T12:08:00;5.90;99.90
23719;DHT22;43322;52.230;5.702;2022-12-07T12:10:39;6.20;99.90
23719;DHT22;43322;52.230;5.702;2022-12-07T12:13:45;6.20;99.90
23719;DHT22;43322;52.230;5.702;2022-12-07T12:16:31;6.20;99.90
23719;DHT22;43322;52.230;5.702;2022-12-07T12:19:22;6.10;99.90
23719;DHT22;43322;52.230;5.702;2022-12-07T12:21:57;6.10;99.90
23719;DHT22;43322;52.230;5.702;2022-12-07T12:24:28;6.10;99.90
23719;DHT22;43322;52.230;5.702;2022-12-07T12:27:04;6.20;99.90
23719;DHT22;43322;52.230;5.702;2022-12-07T12:29:34;6.40;99.90
23719;DHT22;43322;52.230;5.702;2022-12-07T12:32:15;6.60;99.90
23719;DHT22;43322;52.230;5.702;2022-12-07T12:35:03;6.60;99.90
23719;DHT22;43322;52.230;5.702;2022-12-07T12:37:47;6.50;99.90
23719;DHT22;43322;52.230;5.702;2022-12-07T12:43:41;6.60;99.90
23719;DHT22;43322;52.230;5.702;2022-12-07T12:46:37;6.60;99.90
23719;DHT22;43322;52.230;5.702;2022-12-07T12:49:35;6.40;99.90
23719;DHT22;43322;52.230;5.702;2022-12-07T12:55:29;6.20;99.90
23719;DHT22;43322;52.230;5.702;2022-12-07T12:58:32;6.20;99.90
23719;DHT22;43322;52.230;5.702;2022-12-07T13:01:37;6.20;99.90
23719;DHT22;43322;52.230;5.702;2022-12-07T13:04:18;6.10;99.90
23719;DHT22;43322;52.230;5.702;2022-12-07T13:06:54;6.00;99.90
23719;DHT22;43322;52.230;5.702;2022-12-07T13:09:23;5.80;99.90
23719;DHT22;43322;52.230;5.702;2022-12-07T13:11:59;5.70;99.90
23719;DHT22;43322;52.230;5.702;2022-12-07T13:14:42;5.70;99.90
23719;DHT22;43322;52.230;5.702;2022-12-07T13:17:10;5.60;99.90
23719;DHT22;43322;52.230;5.702;2022-12-07T13:19:58;5.60;99.90
23719;DHT22;43322;52.230;5.702;2022-12-07T13:22:40;5.50;99.90
23719;DHT22;43322;52.230;5.702;2022-12-07T13:25:11;5.50;99.90
23719;DHT22;43322;52.230;5.702;2022-12-07T13:27:47;5.50;99.90
23719;DHT22;43322;52.230;5.702;2022-12-07T13:30:19;5.60;99.90
23719;DHT22;43322;52.230;5.702;2022-12-07T13:32:51;5.60;99.90
23719;DHT22;43322;52.230;5.702;2022-12-07T13:35:28;5.70;99.90
23719;DHT22;43322;52.230;5.702;2022-12-07T13:37:55;5.90;99.90
23719;DHT22;43322;52.230;5.702;2022-12-07T13:40:23;6.00;99.90
23719;DHT22;43322;52.230;5.702;2022-12-07T13:42:59;6.00;99.90
23719;DHT22;43322;52.230;5.702;2022-12-07T13:45:29;6.10;99.90
23719;DHT22;43322;52.230;5.702;2022-12-07T13:48:19;6.30;99.90
23719;DHT22;43322;52.230;5.702;2022-12-07T13:50:53;6.30;99.90
23719;DHT22;43322;52.230;5.702;2022-12-07T13:53:21;6.30;99.90
23719;DHT22;43322;52.230;5.702;2022-12-07T13:55:48;6.60;99.90
23719;DHT22;43322;52.230;5.702;2022-12-07T13:58:17;6.30;99.90
23719;DHT22;43322;52.230;5.702;2022-12-07T14:00:44;6.10;99.90
23719;DHT22;43322;52.230;5.702;2022-12-07T14:03:29;6.10;99.90
23719;DHT22;43322;52.230;5.702;2022-12-07T14:08:50;5.70;99.90
23719;DHT22;43322;52.230;5.702;2022-12-07T14:11:32;5.60;99.90
23719;DHT22;43322;52.230;5.702;2022-12-07T14:14:01;5.50;99.90
23719;DHT22;43322;52.230;5.702;2022-12-07T14:16:30;5.50;99.90
23719;DHT22;43322;52.230;5.702;2022-12-07T14:18:58;5.40;99.90
23719;DHT22;43322;52.230;5.702;2022-12-07T14:21:27;5.40;99.90
23719;DHT22;43322;52.230;5.702;2022-12-07T14:24:21;5.40;99.90
23719;DHT22;43322;52.230;5.702;2022-12-07T14:26:50;5.40;99.90
23719;DHT22;43322;52.230;5.702;2022-12-07T14:29:32;5.40;99.90
23719;DHT22;43322;52.230;5.702;2022-12-07T14:32:18;5.30;99.90
23719;DHT22;43322;52.230;5.702;2022-12-07T14:34:56;5.40;99.90
23719;DHT22;43322;52.230;5.702;2022-12-07T14:37:24;5.30;99.90
23719;DHT22;43322;52.230;5.702;2022-12-07T14:39:51;5.20;99.90
23719;DHT22;43322;52.230;5.702;2022-12-07T14:42:18;5.10;99.90
23719;DHT22;43322;52.230;5.702;2022-12-07T14:44:46;5.00;99.90
23719;DHT22;43322;52.230;5.702;2022-12-07T14:47:13;5.00;99.90
23719;DHT22;43322;52.230;5.702;2022-12-07T14:49:40;4.90;99.90
23719;DHT22;43322;52.230;5.702;2022-12-07T14:52:11;4.90;99.90
23719;DHT22;43322;52.230;5.702;2022-12-07T14:54:41;4.80;99.90
23719;DHT22;43322;52.230;5.702;2022-12-07T14:57:09;4.80;99.90
23719;DHT22;43322;52.230;5.702;2022-12-07T14:59:37;4.70;99.90
23719;DHT22;43322;52.230;5.702;2022-12-07T15:02:05;4.70;99.90
23719;DHT22;43322;52.230;5.702;2022-12-07T15:04:32;4.70;99.90
23719;DHT22;43322;52.230;5.702;2022-12-07T15:07:02;4.80;99.90
23719;DHT22;43322;52.230;5.702;2022-12-07T15:09:29;4.70;99.90
23719;DHT22;43322;52.230;5.702;2022-12-07T15:11:56;4.70;99.90
23719;DHT22;43322;52.230;5.702;2022-12-07T15:14:23;4.70;99.90
23719;DHT22;43322;52.230;5.702;2022-12-07T15:16:50;4.60;99.90
23719;DHT22;43322;52.230;5.702;2022-12-07T15:19:19;4.60;99.90
23719;DHT22;43322;52.230;5.702;2022-12-07T15:21:49;4.80;99.90
23719;DHT22;43322;52.230;5.702;2022-12-07T15:24:18;4.60;99.90
23719;DHT22;43322;52.230;5.702;2022-12-07T15:26:46;4.60;99.90
23719;DHT22;43322;52.230;5.702;2022-12-07T15:29:14;4.60;99.90
23719;DHT22;43322;52.230;5.702;2022-12-07T15:31:42;4.50;99.90
23719;DHT22;43322;52.230;5.702;2022-12-07T15:34:09;4.50;99.90
23719;DHT22;43322;52.230;5.702;2022-12-07T15:36:37;4.50;99.90
23719;DHT22;43322;52.230;5.702;2022-12-07T15:39:04;4.50;99.90
23719;DHT22;43322;52.230;5.702;2022-12-07T15:41:32;4.60;99.90
23719;DHT22;43322;52.230;5.702;2022-12-07T15:43:59;4.70;99.90
23719;DHT22;43322;52.230;5.702;2022-12-07T15:46:43;5.10;99.90
23719;DHT22;43322;52.230;5.702;2022-12-07T15:49:13;4.50;99.90
23719;DHT22;43322;52.230;5.702;2022-12-07T15:51:42;4.50;99.90
23719;DHT22;43322;52.230;5.702;2022-12-07T15:54:13;4.50;99.90
23719;DHT22;43322;52.230;5.702;2022-12-07T15:56:42;4.40;99.90
23719;DHT22;43322;52.230;5.702;2022-12-07T15:59:09;4.40;99.90
23719;DHT22;43322;52.230;5.702;2022-12-07T16:01:36;4.40;99.90
23719;DHT22;43322;52.230;5.702;2022-12-07T16:04:03;4.40;99.90
23719;DHT22;43322;52.230;5.702;2022-12-07T16:06:31;4.40;99.90
23719;DHT22;43322;52.230;5.702;2022-12-07T16:09:00;4.50;99.90
23719;DHT22;43322;52.230;5.702;2022-12-07T16:11:28;4.80;99.90
23719;DHT22;43322;52.230;5.702;2022-12-07T16:13:55;4.20;99.90
23719;DHT22;43322;52.230;5.702;2022-12-07T16:16:22;4.30;99.90
23719;DHT22;43322;52.230;5.702;2022-12-07T16:18:50;4.30;99.90
23719;DHT22;43322;52.230;5.702;2022-12-07T16:21:18;4.30;99.90
23719;DHT22;43322;52.230;5.702;2022-12-07T16:23:45;4.30;99.90